Time;durP1;ratioP1;P1;durP2;ratioP2;P2;SDS_P1;SDS_P2;PMS_P1;PMS_P2;Temp;Humidity;BMP_temperature;BMP_pressure;BME280_temperature;BME280_humidity;BME280_pressure;Samples;Min_cycle;Max_cycle;Signal;HPM_P1;HPM_P2
2023/09/30 00:02:06;;;;;;;;;11.33;9.33;;;;;14.54;100.00;102131.66;5040962;28;46842;-80
2023/09/30 00:04:32;;;;;;;;;9.33;7.33;;;;;14.59;100.00;102137.41;5042289;28;45808;-80
2023/09/30 00:06:58;;;;;;;;;10.00;8.33;;;;;14.58;100.00;102144.03;5042294;28;45417;-78
2023/09/30 00:09:23;;;;;;;;;14.67;10.33;;;;;14.57;100.00;102153.34;5057152;28;45904;-80
2023/09/30 00:11:51;;;;;;;;;13.33;10.67;;;;;14.55;100.00;102151.84;5043263;28;44809;-77
2023/09/30 00:14:17;;;;;;;;;12.67;9.33;;;;;14.48;100.00;102146.28;5031445;28;45556;-78
2023/09/30 00:16:43;;;;;;;;;14.33;9.33;;;;;14.46;100.00;102145.59;5036423;28;45827;-80
2023/09/30 00:19:09;;;;;;;;;12.67;10.67;;;;;14.50;100.00;102160.72;5035539;28;46839;-79
2023/09/30 00:21:38;;;;;;;;;12.00;10.00;;;;;14.44;100.00;102153.25;5037190;28;45470;-79
2023/09/30 00:24:03;;;;;;;;;16.33;11.33;;;;;14.45;100.00;102155.78;5039638;28;46413;-79
2023/09/30 00:26:29;;;;;;;;;14.33;10.33;;;;;14.32;100.00;102139.13;5041188;28;45498;-80
2023/09/30 00:28:55;;;;;;;;;10.67;8.67;;;;;14.42;100.00;102161.72;5041378;28;45568;-79
2023/09/30 00:31:20;;;;;;;;;12.67;11.00;;;;;14.39;100.00;102150.25;5041863;28;45411;-80
2023/09/30 00:33:45;;;;;;;;;12.33;9.33;;;;;14.38;100.00;102162.31;5040691;28;47276;-80
2023/09/30 00:36:12;;;;;;;;;15.33;13.00;;;;;14.36;100.00;102172.72;5038618;28;45102;-77
2023/09/30 00:38:37;;;;;;;;;14.00;10.33;;;;;14.37;100.00;102172.53;5037594;28;45826;-77
2023/09/30 00:41:04;;;;;;;;;19.33;15.67;;;;;14.35;100.00;102159.97;5037089;28;46947;-78
2023/09/30 00:43:29;;;;;;;;;13.33;10.33;;;;;14.33;100.00;102157.41;5042726;28;45687;-78
2023/09/30 00:46:36;;;;;;;;;13.67;10.00;;;;;14.32;100.00;102161.22;5040113;28;45828;-78
2023/09/30 00:49:02;;;;;;;;;24.33;17.00;;;;;14.29;100.00;102150.56;5035457;28;45865;-77
2023/09/30 00:51:29;;;;;;;;;10.00;9.33;;;;;14.27;100.00;102142.50;5042318;28;45545;-76
2023/09/30 00:53:59;;;;;;;;;13.67;8.67;;;;;14.20;100.00;102127.78;5034624;28;47244;-80
2023/09/30 00:56:27;;;;;;;;;13.00;8.33;;;;;14.15;100.00;102115.63;5029612;28;45516;-81
2023/09/30 00:58:52;;;;;;;;;14.00;9.00;;;;;14.19;100.00;102101.25;5051949;28;45208;-80
2023/09/30 01:01:19;;;;;;;;;9.67;9.67;;;;;14.22;100.00;102117.41;5047352;28;45964;-76
2023/09/30 01:03:48;;;;;;;;;13.33;9.33;;;;;14.24;100.00;102151.16;5036883;28;45497;-76
2023/09/30 01:06:13;;;;;;;;;8.33;6.67;;;;;14.22;100.00;102152.41;5033852;28;45808;-78
2023/09/30 01:08:39;;;;;;;;;21.00;15.33;;;;;14.19;100.00;102148.16;5033408;28;45570;-76
2023/09/30 01:11:05;;;;;;;;;8.67;8.00;;;;;14.18;100.00;102151.97;5046310;28;45517;-78
2023/09/30 01:13:35;;;;;;;;;10.67;6.00;;;;;14.16;100.00;102139.41;5033136;28;46581;-76
2023/09/30 01:16:09;;;;;;;;;16.00;12.33;;;;;14.13;100.00;102143.41;5037592;28;46104;-78
2023/09/30 01:18:36;;;;;;;;;12.00;7.67;;;;;14.02;100.00;102143.97;5044265;28;45403;-81
2023/09/30 01:21:05;;;;;;;;;6.33;5.00;;;;;14.05;100.00;102154.59;5035594;28;46093;-79
2023/09/30 01:23:37;;;;;;;;;5.33;4.67;;;;;13.95;100.00;102135.59;5036759;28;45625;-79
2023/09/30 01:26:09;;;;;;;;;10.00;6.67;;;;;14.10;100.00;102163.13;5034493;28;45693;-76
2023/09/30 01:28:36;;;;;;;;;19.00;16.00;;;;;14.09;100.00;102166.97;5042893;28;45610;-79
2023/09/30 01:31:02;;;;;;;;;9.67;8.00;;;;;14.09;100.00;102161.44;5034281;28;45916;-80
2023/09/30 01:33:28;;;;;;;;;8.67;6.33;;;;;14.03;100.00;102152.03;5033723;28;45872;-80
2023/09/30 01:35:54;;;;;;;;;8.67;7.33;;;;;14.07;100.00;102153.34;5048796;28;45572;-80
2023/09/30 01:38:20;;;;;;;;;9.67;7.00;;;;;14.04;100.00;102147.38;5036683;28;45444;-81
2023/09/30 01:40:46;;;;;;;;;17.00;14.33;;;;;13.97;100.00;102135.41;5044117;28;46928;-80
2023/09/30 01:43:15;;;;;;;;;5.33;4.33;;;;;14.00;100.00;102124.00;5043506;28;46834;-80
2023/09/30 01:45:41;;;;;;;;;17.67;15.33;;;;;13.99;100.00;102134.16;5035239;28;45380;-79
2023/09/30 01:48:10;;;;;;;;;10.00;7.67;;;;;13.99;100.00;102138.84;5044204;28;45806;-80
2023/09/30 01:50:36;;;;;;;;;15.33;8.33;;;;;13.94;100.00;102136.69;5038599;28;45518;-80
2023/09/30 01:53:02;;;;;;;;;14.00;9.67;;;;;13.84;100.00;102114.09;5041334;28;47205;-80
2023/09/30 01:55:27;;;;;;;;;6.67;6.33;;;;;13.77;100.00;102102.97;5036913;28;45607;-76
2023/09/30 01:57:53;;;;;;;;;14.33;7.33;;;;;13.93;100.00;102123.94;5035702;28;45728;-77
2023/09/30 02:00:18;;;;;;;;;8.67;8.33;;;;;13.90;100.00;102119.66;5036669;28;45511;-78
2023/09/30 02:02:44;;;;;;;;;7.33;7.33;;;;;13.89;100.00;102129.00;5037778;28;45469;-81
2023/09/30 02:05:09;;;;;;;;;9.00;7.67;;;;;13.86;100.00;102123.00;5047865;28;45829;-81
2023/09/30 02:07:35;;;;;;;;;9.33;8.67;;;;;13.89;100.00;102128.13;5038486;28;45519;-79
2023/09/30 02:10:01;;;;;;;;;12.67;8.33;;;;;13.94;100.00;102134.75;5047535;28;45357;-81
2023/09/30 02:12:30;;;;;;;;;9.00;7.33;;;;;13.82;100.00;102117.03;5040848;28;46230;-80
2023/09/30 02:14:58;;;;;;;;;15.00;13.33;;;;;13.98;100.00;102139.88;5033375;28;45355;-76
2023/09/30 02:17:23;;;;;;;;;11.00;9.67;;;;;14.00;100.00;102135.03;5035145;28;45788;-76
2023/09/30 02:19:49;;;;;;;;;8.00;8.00;;;;;14.03;100.00;102134.66;5041986;28;46981;-78
2023/09/30 02:22:15;;;;;;;;;8.00;7.00;;;;;14.01;100.00;102128.44;5044637;28;45389;-77
2023/09/30 02:24:40;;;;;;;;;17.00;12.67;;;;;14.02;100.00;102128.25;5032599;28;45474;-76
2023/09/30 02:27:06;;;;;;;;;8.33;6.00;;;;;13.97;100.00;102124.38;5032503;28;45812;-78
2023/09/30 02:29:41;;;;;;;;;22.67;16.33;;;;;14.02;100.00;102122.75;5045491;28;45518;-79
2023/09/30 02:32:06;;;;;;;;;11.00;9.67;;;;;14.03;100.00;102134.66;5045795;28;45705;-78
2023/09/30 02:34:32;;;;;;;;;11.00;8.00;;;;;13.93;100.00;102124.78;5044031;28;45498;-81
2023/09/30 02:40:14;;;;;;;;;9.67;7.67;;;;;13.94;100.00;102126.50;5038968;28;45499;-80
2023/09/30 02:42:41;;;;;;;;;6.00;6.00;;;;;13.83;100.00;102110.50;5047360;28;46769;-81
2023/09/30 02:45:10;;;;;;;;;6.33;6.33;;;;;13.86;100.00;102117.50;5040999;28;45666;-80
2023/09/30 02:47:36;;;;;;;;;8.00;6.33;;;;;13.83;100.00;102121.53;5041302;28;45372;-81
2023/09/30 02:50:04;;;;;;;;;7.67;6.33;;;;;13.82;100.00;102128.06;5044895;28;46131;-76
2023/09/30 02:52:30;;;;;;;;;10.33;9.00;;;;;13.82;100.00;102144.63;5042797;28;47588;-77
2023/09/30 02:54:57;;;;;;;;;8.00;7.33;;;;;13.78;100.00;102132.25;5039376;28;45572;-77
2023/09/30 02:57:23;;;;;;;;;9.67;8.00;;;;;13.76;100.00;102134.38;5040488;28;45476;-79
2023/09/30 02:59:48;;;;;;;;;8.67;7.33;;;;;13.80;100.00;102157.72;5043644;28;46277;-77
2023/09/30 03:02:15;;;;;;;;;7.33;6.67;;;;;13.70;100.00;102137.91;5040872;28;47036;-78
2023/09/30 03:04:42;;;;;;;;;8.67;8.67;;;;;13.65;100.00;102129.38;5048175;28;45981;-76
2023/09/30 03:07:08;;;;;;;;;12.67;9.67;;;;;13.82;100.00;102155.66;5032298;28;45489;-78
2023/09/30 03:09:34;;;;;;;;;10.33;9.00;;;;;13.81;100.00;102142.91;5042992;28;45404;-77
2023/09/30 03:11:59;;;;;;;;;8.33;6.33;;;;;13.79;100.00;102150.53;5037661;28;46156;-78
2023/09/30 03:14:25;;;;;;;;;10.00;8.00;;;;;13.75;100.00;102143.69;5031112;28;45521;-78
2023/09/30 03:16:51;;;;;;;;;10.00;9.00;;;;;13.82;100.00;102163.03;5042927;28;45976;-77
2023/09/30 03:19:17;;;;;;;;;13.67;9.00;;;;;13.66;100.00;102140.19;5036484;28;45779;-77
2023/09/30 03:21:43;;;;;;;;;8.33;8.00;;;;;13.80;100.00;102163.25;5037465;28;45909;-78
2023/09/30 03:24:08;;;;;;;;;13.67;10.00;;;;;13.79;100.00;102158.81;5035513;28;45639;-81
2023/09/30 03:26:35;;;;;;;;;15.00;10.67;;;;;13.70;100.00;102151.72;5043205;28;45335;-80
2023/09/30 03:29:01;;;;;;;;;11.67;10.00;;;;;13.70;100.00;102163.56;5049692;28;45448;-81
2023/09/30 03:31:26;;;;;;;;;14.33;11.67;;;;;13.73;100.00;102168.69;5041796;28;45852;-77
2023/09/30 03:33:55;;;;;;;;;9.00;8.67;;;;;13.64;100.00;102164.34;5028048;28;46250;-76
2023/09/30 03:36:24;;;;;;;;;15.67;13.33;;;;;13.64;100.00;102172.63;5037000;28;45815;-77
2023/09/30 03:38:55;;;;;;;;;11.00;11.00;;;;;13.66;100.00;102177.94;5039512;28;45430;-77
2023/09/30 03:41:21;;;;;;;;;14.00;11.33;;;;;13.66;100.00;102173.28;5031802;28;48168;-80
2023/09/30 03:43:47;;;;;;;;;17.33;11.33;;;;;13.58;100.00;102159.63;5035696;28;45907;-80
2023/09/30 03:46:13;;;;;;;;;14.00;13.33;;;;;13.53;100.00;102151.94;5045004;28;45450;-77
2023/09/30 03:48:42;;;;;;;;;14.67;13.67;;;;;13.48;100.00;102148.06;5042232;28;45775;-77
2023/09/30 03:51:14;;;;;;;;;15.00;13.67;;;;;13.62;100.00;102162.84;5031038;28;45874;-80
2023/09/30 03:53:44;;;;;;;;;18.00;12.00;;;;;13.59;100.00;102164.94;5053794;28;45997;-78
2023/09/30 03:56:11;;;;;;;;;13.00;11.67;;;;;13.53;100.00;102151.94;5054247;28;44868;-79
2023/09/30 03:58:41;;;;;;;;;12.33;9.00;;;;;13.56;100.00;102159.81;5032101;28;45265;-78
2023/09/30 04:01:07;;;;;;;;;15.67;10.67;;;;;13.55;100.00;102154.50;5038670;28;46285;-82
2023/09/30 04:03:34;;;;;;;;;16.00;12.67;;;;;13.42;100.00;102130.38;5035817;28;45724;-80
2023/09/30 04:06:02;;;;;;;;;12.33;10.67;;;;;13.46;100.00;102139.97;5038303;28;45477;-78
2023/09/30 04:08:28;;;;;;;;;16.00;12.33;;;;;13.44;100.00;102131.03;5041684;28;45401;-78
2023/09/30 04:10:54;;;;;;;;;13.67;10.33;;;;;13.49;100.00;102130.44;5048536;28;46566;-76
2023/09/30 04:13:21;;;;;;;;;16.00;10.33;;;;;13.47;100.00;102122.38;5045853;28;45502;-78
2023/09/30 04:15:46;;;;;;;;;13.00;9.67;;;;;13.44;100.00;102114.50;5040912;28;45485;-78
2023/09/30 04:18:12;;;;;;;;;16.00;13.00;;;;;13.45;100.00;102110.72;5039447;28;45196;-78
2023/09/30 04:20:39;;;;;;;;;13.67;13.33;;;;;13.42;100.00;102098.16;5038283;28;48022;-77
2023/09/30 04:23:06;;;;;;;;;15.00;10.33;;;;;13.33;100.00;102090.19;5049801;28;45528;-77
2023/09/30 04:25:32;;;;;;;;;13.33;12.33;;;;;13.40;100.00;102100.28;5041120;28;45740;-77
2023/09/30 04:28:05;;;;;;;;;11.00;11.00;;;;;13.38;100.00;102088.59;5038235;28;45728;-78
2023/09/30 04:30:33;;;;;;;;;10.67;9.67;;;;;13.34;100.00;102092.78;5036900;28;47486;-76
2023/09/30 04:32:59;;;;;;;;;12.00;10.00;;;;;13.30;100.00;102083.16;5036846;28;45732;-79
2023/09/30 04:35:25;;;;;;;;;14.00;10.00;;;;;13.32;100.00;102088.47;5037256;28;45425;-80
2023/09/30 04:37:51;;;;;;;;;10.67;9.33;;;;;13.34;100.00;102097.44;5037548;28;44871;-79
2023/09/30 04:40:19;;;;;;;;;14.33;11.00;;;;;13.33;100.00;102113.06;5047982;28;45610;-82
2023/09/30 04:42:48;;;;;;;;;7.33;6.67;;;;;13.35;100.00;102121.19;5040280;28;45442;-78
2023/09/30 04:45:19;;;;;;;;;21.00;17.00;;;;;13.32;100.00;102121.53;5038737;28;45916;-79
2023/09/30 04:47:45;;;;;;;;;15.33;12.33;;;;;13.31;100.00;102119.81;5042894;28;45959;-79
2023/09/30 04:50:16;;;;;;;;;17.00;12.00;;;;;13.32;100.00;102124.28;5041344;28;48300;-76
2023/09/30 04:52:42;;;;;;;;;12.00;9.33;;;;;13.24;100.00;102117.00;5041809;28;45715;-80
2023/09/30 04:55:09;;;;;;;;;12.33;9.33;;;;;13.27;100.00;102135.06;5041296;28;45561;-80
2023/09/30 04:57:34;;;;;;;;;11.33;10.33;;;;;13.32;100.00;102138.06;5038183;28;47073;-76
2023/09/30 05:00:00;;;;;;;;;16.33;13.33;;;;;13.29;100.00;102141.22;5038338;28;47151;-77
2023/09/30 05:02:27;;;;;;;;;11.33;9.67;;;;;13.30;100.00;102135.50;5041448;28;45840;-76
2023/09/30 05:04:53;;;;;;;;;13.67;10.33;;;;;13.29;100.00;102136.53;5044234;28;45424;-80
2023/09/30 05:07:21;;;;;;;;;14.67;12.33;;;;;13.29;100.00;102142.06;5051622;28;45447;-80
2023/09/30 05:09:47;;;;;;;;;13.67;10.33;;;;;13.29;100.00;102138.44;5043311;28;47919;-76
2023/09/30 05:12:12;;;;;;;;;12.33;10.33;;;;;13.27;100.00;102140.56;5032908;28;45526;-77
2023/09/30 05:14:38;;;;;;;;;14.33;11.00;;;;;13.19;100.00;102128.59;5039317;28;45875;-77
2023/09/30 05:17:04;;;;;;;;;14.67;10.00;;;;;13.20;100.00;102126.69;5038663;28;45701;-77
2023/09/30 05:19:32;;;;;;;;;16.67;15.67;;;;;13.17;100.00;102124.31;5043756;28;47225;-80
2023/09/30 05:21:57;;;;;;;;;16.00;12.00;;;;;13.24;100.00;102141.78;5042813;28;45462;-79
2023/09/30 05:24:23;;;;;;;;;11.00;10.67;;;;;13.21;100.00;102145.78;5039220;28;45409;-79
2023/09/30 05:26:48;;;;;;;;;18.67;11.67;;;;;13.23;100.00;102146.47;5028047;28;45865;-79
2023/09/30 05:29:14;;;;;;;;;13.67;10.33;;;;;13.23;100.00;102138.19;5033576;28;47849;-79
2023/09/30 05:31:39;;;;;;;;;13.00;12.33;;;;;13.22;100.00;102141.97;5031632;28;45415;-77
2023/09/30 05:34:04;;;;;;;;;17.33;12.00;;;;;13.23;100.00;102153.84;5034566;28;45417;-75
2023/09/30 05:36:30;;;;;;;;;11.67;8.67;;;;;13.20;100.00;102149.59;5036422;28;45674;-77
2023/09/30 05:38:56;;;;;;;;;11.67;7.33;;;;;13.20;100.00;102157.88;5038241;28;46642;-79
2023/09/30 05:41:21;;;;;;;;;12.33;10.00;;;;;13.17;100.00;102152.75;5041663;28;45589;-79
2023/09/30 05:43:47;;;;;;;;;11.00;10.33;;;;;13.18;100.00;102143.41;5049024;28;45709;-79
2023/09/30 05:46:13;;;;;;;;;19.67;12.33;;;;;13.07;100.00;102117.22;5036693;28;46110;-77
2023/09/30 05:48:39;;;;;;;;;10.67;8.67;;;;;13.21;100.00;102131.16;5035511;28;45614;-82
2023/09/30 05:51:06;;;;;;;;;9.00;8.00;;;;;13.22;100.00;102127.38;5037394;28;45472;-76
2023/09/30 05:53:32;;;;;;;;;12.33;10.67;;;;;13.19;100.00;102116.72;5040183;28;45449;-79
2023/09/30 05:56:01;;;;;;;;;18.00;14.00;;;;;13.22;100.00;102110.84;5038511;28;46086;-83
2023/09/30 05:58:26;;;;;;;;;16.67;10.67;;;;;13.29;100.00;102125.53;5036289;28;45680;-75
2023/09/30 06:00:55;;;;;;;;;20.67;15.67;;;;;13.28;100.00;102129.34;5032258;28;47485;-76
2023/09/30 06:03:21;;;;;;;;;13.33;11.33;;;;;13.34;100.00;102131.34;5033741;28;45887;-76
2023/09/30 06:05:48;;;;;;;;;15.00;13.67;;;;;13.29;100.00;102121.94;5036869;28;45522;-77
2023/09/30 06:08:14;;;;;;;;;16.33;11.33;;;;;13.32;100.00;102127.03;5023865;28;47840;-76
2023/09/30 06:10:43;;;;;;;;;15.00;11.67;;;;;13.39;100.00;102136.28;5032219;28;45922;-75
2023/09/30 06:13:10;;;;;;;;;13.67;11.33;;;;;13.49;100.00;102136.84;5036502;28;46009;-75
2023/09/30 06:15:40;;;;;;;;;10.33;8.00;;;;;13.65;100.00;102152.25;5036425;28;44796;-78
2023/09/30 06:18:06;;;;;;;;;15.67;12.67;;;;;13.64;100.00;102138.69;5042618;28;46414;-77
2023/09/30 06:20:31;;;;;;;;;15.67;13.33;;;;;13.78;100.00;102160.69;5037015;28;45471;-80
2023/09/30 06:22:56;;;;;;;;;10.67;9.00;;;;;13.84;100.00;102141.66;5022767;28;45213;-80
2023/09/30 06:25:27;;;;;;;;;13.33;13.33;;;;;14.03;100.00;102151.19;5032865;28;45705;-78
2023/09/30 06:27:53;;;;;;;;;16.33;13.00;;;;;14.19;100.00;102134.38;5032997;28;45503;-77
2023/09/30 06:30:42;;;;;;;;;14.00;14.00;;;;;14.35;100.00;102151.69;5038448;28;45587;-77
2023/09/30 06:33:11;;;;;;;;;12.67;7.67;;;;;14.43;100.00;102132.19;5035901;28;45585;-77
2023/09/30 06:35:49;;;;;;;;;13.33;11.00;;;;;14.74;100.00;102166.88;5044465;28;46545;-77
2023/09/30 06:38:15;;;;;;;;;15.33;9.33;;;;;14.96;100.00;102176.78;5035025;28;45946;-77
2023/09/30 06:40:42;;;;;;;;;14.67;13.33;;;;;15.32;100.00;102178.47;5043544;28;45460;-77
2023/09/30 06:43:08;;;;;;;;;17.00;14.00;;;;;15.61;100.00;102154.34;5041792;28;45606;-77
2023/09/30 06:45:34;;;;;;;;;19.00;15.67;;;;;15.77;100.00;102135.66;5044721;28;44902;-80
2023/09/30 06:47:59;;;;;;;;;15.33;11.33;;;;;16.14;100.00;102158.34;5047504;28;46704;-81
2023/09/30 06:50:24;;;;;;;;;14.00;11.67;;;;;16.48;100.00;102165.59;5039990;28;45539;-82
2023/09/30 06:52:50;;;;;;;;;11.33;11.33;;;;;16.61;100.00;102117.63;5035804;28;45818;-82
2023/09/30 06:55:16;;;;;;;;;12.00;10.33;;;;;17.01;100.00;102152.75;5036917;28;45940;-82
2023/09/30 06:57:42;;;;;;;;;14.00;11.67;;;;;17.34;100.00;102162.88;5039374;28;45809;-81
2023/09/30 07:00:09;;;;;;;;;11.33;11.00;;;;;17.45;100.00;102151.06;5029318;28;45867;-81
2023/09/30 07:02:36;;;;;;;;;14.33;9.67;;;;;17.54;100.00;102148.91;5030576;28;45511;-81
2023/09/30 07:05:05;;;;;;;;;9.67;8.33;;;;;17.56;100.00;102141.19;5030765;28;45730;-81
2023/09/30 07:07:30;;;;;;;;;13.00;11.33;;;;;17.52;100.00;102126.94;5039430;28;47046;-79
2023/09/30 07:09:56;;;;;;;;;10.67;9.33;;;;;17.74;100.00;102157.09;5037325;28;45523;-79
2023/09/30 07:12:22;;;;;;;;;11.33;11.33;;;;;17.83;100.00;102159.41;5031810;28;45415;-76
2023/09/30 07:14:47;;;;;;;;;14.33;13.33;;;;;18.03;100.00;102165.94;5035804;28;45594;-78
2023/09/30 07:17:12;;;;;;;;;13.33;11.33;;;;;18.14;100.00;102174.41;5035073;28;45991;-81
2023/09/30 07:19:38;;;;;;;;;13.33;10.67;;;;;18.32;100.00;102175.53;5037539;28;45315;-76
2023/09/30 07:22:03;;;;;;;;;12.67;11.33;;;;;18.34;100.00;102168.69;5036546;28;45702;-77
2023/09/30 07:24:28;;;;;;;;;19.00;11.67;;;;;18.30;100.00;102156.31;5040541;28;45665;-83
2023/09/30 07:26:55;;;;;;;;;19.00;10.33;;;;;18.41;100.00;102160.28;5031436;28;46792;-77
2023/09/30 07:29:20;;;;;;;;;10.33;9.00;;;;;18.49;100.00;102154.47;5035089;28;45916;-81
2023/09/30 07:31:45;;;;;;;;;18.33;9.33;;;;;18.56;100.00;102159.94;5046634;28;46010;-81
2023/09/30 07:34:11;;;;;;;;;14.67;10.00;;;;;18.40;100.00;102155.81;5033326;28;47007;-81
2023/09/30 07:36:37;;;;;;;;;17.33;16.00;;;;;18.25;100.00;102164.50;5034319;28;45388;-82
2023/09/30 07:39:04;;;;;;;;;17.00;15.00;;;;;18.12;100.00;102170.13;5035856;28;45664;-77
2023/09/30 07:41:34;;;;;;;;;22.67;15.00;;;;;17.96;100.00;102172.41;5041629;28;45610;-79
2023/09/30 07:44:00;;;;;;;;;15.67;14.33;;;;;18.06;100.00;102168.25;5035659;28;45551;-77
2023/09/30 07:46:25;;;;;;;;;21.00;18.33;;;;;18.00;100.00;102150.56;5034790;28;46348;-77
2023/09/30 07:48:51;;;;;;;;;20.33;18.00;;;;;18.29;100.00;102170.44;5034374;28;45785;-78
2023/09/30 07:51:16;;;;;;;;;19.67;16.00;;;;;18.39;100.00;102162.44;5037288;28;45428;-78
2023/09/30 07:53:41;;;;;;;;;18.00;13.00;;;;;18.50;100.00;102181.16;5030511;28;45587;-77
2023/09/30 07:56:07;;;;;;;;;18.67;16.67;;;;;18.44;100.00;102183.97;5033359;28;45560;-77
2023/09/30 07:58:33;;;;;;;;;16.00;16.00;;;;;18.39;100.00;102170.78;5039753;28;45409;-77
2023/09/30 08:01:04;;;;;;;;;16.67;16.33;;;;;18.52;100.00;102189.28;5041145;28;45329;-78
2023/09/30 08:03:29;;;;;;;;;19.00;16.67;;;;;18.50;100.00;102183.94;5037306;28;45400;-81
2023/09/30 08:05:54;;;;;;;;;19.33;12.33;;;;;18.46;100.00;102190.19;5032623;28;48015;-77
2023/09/30 08:08:20;;;;;;;;;23.00;16.33;;;;;18.39;100.00;102181.06;5045825;28;45556;-77
2023/09/30 08:10:45;;;;;;;;;12.33;8.33;;;;;18.38;100.00;102179.34;5039613;28;45345;-78
2023/09/30 08:13:11;;;;;;;;;19.33;13.33;;;;;18.56;100.00;102181.31;5035598;28;45425;-77
2023/09/30 08:15:36;;;;;;;;;23.00;17.33;;;;;18.64;100.00;102192.16;5035427;28;46642;-76
2023/09/30 08:18:05;;;;;;;;;13.33;13.33;;;;;18.46;100.00;102187.41;5037202;28;45466;-77
2023/09/30 08:20:31;;;;;;;;;22.67;18.33;;;;;18.46;100.00;102181.84;5039480;28;45465;-81
2023/09/30 08:23:05;;;;;;;;;20.67;16.67;;;;;18.53;100.00;102177.94;5040926;28;45509;-80
2023/09/30 08:25:57;;;;;;;;;15.67;14.67;;;;;18.88;100.00;102188.53;5033488;28;45853;-85
2023/09/30 08:28:22;;;;;;;;;15.00;12.33;;;;;19.00;100.00;102185.00;5037656;28;45967;-76
2023/09/30 08:30:49;;;;;;;;;13.67;10.67;;;;;19.10;100.00;102190.00;5040273;28;45920;-78
2023/09/30 08:33:14;;;;;;;;;15.33;12.00;;;;;19.12;100.00;102185.94;5047990;28;46430;-78
2023/09/30 08:35:39;;;;;;;;;12.00;8.67;;;;;19.27;100.00;102195.84;5036851;28;48144;-78
2023/09/30 08:38:05;;;;;;;;;10.00;9.33;;;;;19.27;100.00;102193.06;5040304;28;45528;-76
2023/09/30 08:40:31;;;;;;;;;14.33;8.67;;;;;19.28;100.00;102189.16;5038920;28;45501;-79
2023/09/30 08:42:57;;;;;;;;;13.33;8.33;;;;;19.21;100.00;102184.53;5037602;28;45830;-77
2023/09/30 08:45:23;;;;;;;;;8.67;8.00;;;;;19.34;100.00;102204.94;5031797;28;46563;-78
2023/09/30 08:47:50;;;;;;;;;13.67;9.00;;;;;19.47;100.00;102207.56;5037676;28;45352;-78
2023/09/30 08:50:16;;;;;;;;;15.00;7.67;;;;;19.61;100.00;102207.38;5033487;28;45734;-83
2023/09/30 08:52:44;;;;;;;;;14.67;9.33;;;;;19.83;100.00;102205.81;5037027;28;45414;-82
2023/09/30 08:55:11;;;;;;;;;9.33;7.67;;;;;19.98;100.00;102204.56;5035296;28;45437;-78
2023/09/30 08:57:40;;;;;;;;;8.67;5.00;;;;;20.13;100.00;102210.53;5038684;28;45956;-80
2023/09/30 09:00:11;;;;;;;;;10.33;6.00;;;;;20.31;100.00;102209.63;5036430;28;45389;-82
2023/09/30 09:02:37;;;;;;;;;10.67;7.33;;;;;20.28;100.00;102198.97;5041648;28;45434;-79
2023/09/30 09:05:02;;;;;;;;;117.25;94.25;;;;;20.53;100.00;102211.88;5040460;28;45581;-79
2023/09/30 09:07:28;;;;;;;;;13.00;11.33;;;;;20.71;100.00;102211.78;5037924;28;45409;-80
2023/09/30 09:10:04;;;;;;;;;11.00;7.00;;;;;20.74;100.00;102214.09;5037288;28;45458;-79
2023/09/30 09:12:29;;;;;;;;;9.67;8.33;;;;;20.91;100.00;102197.50;5038604;28;46267;-80
2023/09/30 09:14:55;;;;;;;;;8.67;5.00;;;;;21.09;100.00;102201.22;5035657;28;45460;-79
2023/09/30 09:17:22;;;;;;;;;11.67;9.00;;;;;20.98;100.00;102198.19;5028460;28;45639;-77
2023/09/30 09:19:59;;;;;;;;;13.67;10.67;;;;;21.02;100.00;102193.00;5034588;28;45457;-79
2023/09/30 09:22:24;;;;;;;;;13.67;9.67;;;;;;;;5034422;28;45183;-80
2023/09/30 09:24:51;;;;;;;;;13.67;7.00;;;;;21.25;100.00;102192.09;5037396;28;45427;-79
2023/09/30 09:27:16;;;;;;;;;9.67;6.00;;;;;21.49;100.00;102192.06;5035441;28;45720;-82
2023/09/30 09:29:44;;;;;;;;;9.33;7.33;;;;;21.61;100.00;102192.88;5034855;28;45477;-77
2023/09/30 09:32:19;;;;;;;;;13.00;9.00;;;;;21.78;100.00;102187.38;5037715;28;45556;-79
2023/09/30 09:34:45;;;;;;;;;10.00;7.00;;;;;22.05;100.00;102200.72;5031084;28;46265;-79
2023/09/30 09:37:22;;;;;;;;;10.67;8.67;;;;;22.19;100.00;102213.28;5036107;28;45708;-79
2023/09/30 09:39:55;;;;;;;;;9.33;8.00;;;;;22.43;100.00;102203.97;5037398;28;45448;-78
2023/09/30 09:42:31;;;;;;;;;11.33;10.00;;;;;22.44;100.00;102188.84;5032909;28;45419;-78
2023/09/30 09:44:59;;;;;;;;;10.67;8.33;;;;;22.76;100.00;102207.84;5040928;28;46522;-78
2023/09/30 09:47:25;;;;;;;;;7.67;6.00;;;;;22.87;100.00;102206.91;5034028;28;45597;-78
2023/09/30 09:49:52;;;;;;;;;12.00;9.33;;;;;22.79;100.00;102205.38;5032021;28;45581;-81
2023/09/30 09:52:19;;;;;;;;;10.33;8.00;;;;;22.96;100.00;102216.53;5035146;28;45394;-81
2023/09/30 09:54:46;;;;;;;;;14.67;11.00;;;;;23.04;100.00;102213.31;5033642;28;45535;-81
2023/09/30 09:57:12;;;;;;;;;10.67;10.67;;;;;23.04;100.00;102199.31;5031009;28;45603;-81
2023/09/30 09:59:40;;;;;;;;;10.50;9.50;;;;;23.39;100.00;102216.91;5023383;28;46283;-81
2023/09/30 10:02:14;;;;;;;;;11.25;9.75;;;;;23.87;100.00;102206.03;5030758;28;46170;-80
2023/09/30 10:04:44;;;;;;;;;12.33;9.33;;;;;24.40;100.00;102198.72;5029684;28;47310;-77
2023/09/30 10:07:21;;;;;;;;;10.67;10.33;;;;;24.69;100.00;102170.34;5031154;28;45579;-78
2023/09/30 10:09:51;;;;;;;;;13.33;11.00;;;;;25.33;100.00;102182.53;5033947;28;45939;-80
2023/09/30 10:12:18;;;;;;;;;16.50;14.00;;;;;26.12;100.00;102177.72;5029827;28;45749;-77
2023/09/30 10:14:44;;;;;;;;;10.50;7.75;;;;;26.88;100.00;102180.81;5031736;28;47190;-79
2023/09/30 10:17:10;;;;;;;;;9.00;7.25;;;;;27.20;100.00;102177.66;5034372;28;46759;-78
2023/09/30 10:19:35;;;;;;;;;10.50;9.50;;;;;27.45;97.16;102179.53;5031061;28;45501;-79
2023/09/30 10:22:19;;;;;;;;;12.50;9.50;;;;;28.04;95.93;102181.75;5040778;28;45956;-78
2023/09/30 10:24:46;;;;;;;;;9.25;7.00;;;;;28.43;91.30;102183.72;5046197;28;45838;-78
2023/09/30 10:27:28;;;;;;;;;11.50;8.50;;;;;28.13;89.56;102171.53;5033885;28;45706;-79
2023/09/30 10:29:58;;;;;;;;;10.00;7.75;;;;;27.83;89.67;102173.44;5028987;28;45854;-80
2023/09/30 10:33:07;;;;;;;;;11.25;9.25;;;;;27.33;88.45;102164.09;5014640;28;46201;-80
2023/09/30 10:35:32;;;;;;;;;12.75;10.00;;;;;26.74;87.13;102164.53;5012116;28;46649;-80
2023/09/30 10:38:24;;;;;;;;;9.75;7.25;;;;;26.18;90.89;102158.91;5017370;28;45486;-81
2023/09/30 10:40:50;;;;;;;;;9.00;8.50;;;;;25.83;89.97;102160.50;5028002;28;45616;-81
2023/09/30 10:43:36;;;;;;;;;9.75;7.75;;;;;25.40;90.97;102166.28;5018764;28;45517;-81
2023/09/30 10:46:06;;;;;;;;;11.00;8.33;;;;;25.32;91.67;102166.81;5011308;28;46309;-79
2023/09/30 10:48:34;;;;;;;;;6.75;5.25;;;;;25.14;92.49;102166.13;5018490;28;45507;-78
2023/09/30 10:51:10;;;;;;;;;12.75;9.75;;;;;25.09;92.48;102163.31;5017953;28;45462;-80
2023/09/30 10:53:46;;;;;;;;;9.50;7.75;;;;;24.98;93.80;102151.16;5019145;28;45512;-78
2023/09/30 10:56:12;;;;;;;;;11.00;8.00;;;;;24.96;94.49;102152.56;5008157;28;47939;-80
2023/09/30 10:58:50;;;;;;;;;6.50;5.50;;;;;24.73;94.25;102142.59;5013302;28;45835;-82
2023/09/30 11:01:22;;;;;;;;;10.00;6.00;;;;;24.17;93.92;102135.41;5026332;28;45578;-82
2023/09/30 11:03:51;;;;;;;;;11.50;8.00;;;;;23.88;95.90;102146.94;5017489;28;45432;-83
2023/09/30 11:06:20;;;;;;;;;9.00;6.50;;;;;23.73;96.23;102141.97;5017481;28;45612;-80
2023/09/30 11:09:12;;;;;;;;;8.67;7.33;;;;;23.77;97.13;102117.94;5012338;28;45604;-79
2023/09/30 11:11:49;;;;;;;;;10.33;9.00;;;;;23.96;96.50;102129.63;5017672;28;45981;-79
2023/09/30 11:14:20;;;;;;;;;12.00;10.67;;;;;23.90;97.40;102133.50;5025227;28;45461;-79
2023/09/30 11:16:46;;;;;;;;;12.33;9.67;;;;;23.79;97.24;102140.91;5027938;28;45409;-79